createdAt,value
2023-01-28T00:02:50.941Z,18.48
2023-01-28T00:12:55.383Z,16.60
2023-01-28T00:22:58.523Z,16.47
2023-01-28T00:43:05.837Z,14.47
2023-01-28T00:53:10.148Z,18.85
2023-01-28T01:03:13.218Z,19.73
2023-01-28T01:13:17.633Z,20.30
2023-01-28T01:23:20.638Z,19.50
2023-01-28T01:33:25.046Z,20.83
2023-01-28T01:43:48.167Z,22.43
2023-01-28T01:53:55.390Z,19.85
2023-01-28T02:04:05.516Z,21.40
2023-01-28T07:39:04.927Z,21.10
2023-01-28T07:49:08.132Z,21.77
2023-01-28T07:59:12.503Z,25.27
2023-01-28T08:09:17.933Z,17.73
2023-01-28T08:19:22.342Z,25.17
2023-01-28T08:29:25.455Z,25.77
2023-01-28T08:39:29.911Z,20.58
2023-01-28T08:49:32.876Z,18.67
2023-01-28T08:59:40.855Z,22.15
2023-01-28T09:09:44.002Z,20.88
2023-01-28T09:19:48.635Z,23.67
2023-01-28T09:29:51.691Z,20.67
2023-01-28T09:39:56.070Z,21.35
2023-01-28T09:50:03.214Z,19.60
2023-01-28T10:00:16.033Z,22.58
2023-01-28T10:10:23.260Z,23.13
2023-01-28T10:20:33.173Z,21.63
2023-01-28T10:30:39.481Z,19.55
2023-01-28T10:40:48.202Z,20.88
2023-01-28T10:50:52.617Z,17.70
2023-01-28T11:01:00.926Z,21.37
2023-01-28T11:11:04.169Z,20.35
2023-01-28T11:21:17.831Z,20.05
2023-01-28T11:31:23.620Z,21.05
2023-01-28T11:41:30.575Z,21.15
2023-01-28T11:51:43.234Z,18.95
2023-01-28T12:01:55.579Z,22.08
2023-01-28T12:12:16.098Z,20.52
2023-01-28T12:22:35.241Z,22.40
2023-01-28T12:32:50.615Z,22.67
2023-01-28T12:43:01.737Z,18.92
2023-01-28T12:53:18.553Z,20.52
2023-01-28T13:03:32.648Z,22.65
2023-01-28T13:13:38.492Z,18.42
2023-01-28T13:23:45.230Z,18.52
2023-01-28T13:33:49.961Z,18.33
2023-01-28T13:43:54.389Z,16.85
2023-01-28T13:54:01.934Z,15.43
2023-01-28T14:04:37.696Z,16.25
2023-01-28T14:15:26.599Z,14.35
2023-01-28T14:25:40.399Z,15.55
2023-01-28T14:35:48.683Z,15.52
2023-01-28T14:46:10.032Z,13.35
2023-01-28T14:56:24.829Z,20.30
2023-01-28T15:36:44.043Z,17.52
2023-01-28T15:56:51.565Z,18.05
2023-01-28T16:06:56.420Z,22.80
2023-01-28T16:27:07.090Z,19.25
2023-01-28T16:37:12.081Z,24.30
2023-01-28T16:47:15.090Z,23.00
2023-01-28T16:57:22.577Z,20.95
2023-01-28T17:07:25.770Z,28.02
2023-01-28T17:17:30.305Z,26.27
2023-01-28T17:27:33.363Z,28.08
2023-01-28T17:37:38.661Z,26.73
2023-01-28T17:47:41.806Z,26.38
2023-01-28T17:57:46.517Z,31.58
2023-01-28T18:17:55.723Z,34.30
2023-01-28T18:27:58.780Z,40.17
2023-01-28T18:38:03.496Z,42.05
2023-01-28T18:58:10.887Z,39.33
2023-01-28T19:08:16.073Z,40.63
2023-01-28T19:18:20.769Z,43.55
2023-01-28T19:38:28.840Z,49.15
2023-01-28T19:48:32.967Z,45.30
2023-01-28T19:58:39.020Z,43.97
2023-01-28T20:08:42.475Z,65.35
2023-01-28T20:18:49.938Z,57.53
2023-01-28T20:28:53.534Z,63.72
2023-01-28T20:38:58.308Z,55.58
2023-01-28T20:59:14.261Z,55.53
2023-01-28T21:09:17.432Z,47.63
2023-01-28T21:19:21.985Z,57.63
2023-01-28T21:29:25.383Z,61.17
2023-01-28T21:39:29.770Z,52.40
2023-01-28T21:49:32.775Z,54.83
2023-01-28T21:59:39.967Z,59.42
2023-01-28T22:09:43.757Z,52.78
2023-01-28T22:19:49.054Z,67.30
2023-01-28T22:29:53.947Z,49.85
2023-01-28T22:39:58.572Z,53.15
2023-01-28T23:00:11.966Z,51.05
2023-01-28T23:10:15.484Z,47.42
2023-01-28T23:20:37.720Z,46.33
2023-01-28T23:30:41.477Z,49.97
2023-01-28T23:40:45.832Z,36.50
2023-01-28T23:50:48.946Z,52.45
